Terminal Aerodrome Forecast
Issued by NWS Jackson, MS

Home | Current Version | Previous Version | Text Only | Print | Product List | Glossary On
Versions: 1 2 3 4 5 6 7 8 9 10 11 12
000
FTUS44 KJAN 291757 RRA
TAFHBG
TAF
KHBG 291757Z 2918/3018 18009G18KT P6SM BKN030
     FM300000 17008KT P6SM SCT030
     FM300700 18004KT 5SM BR BKN020
     FM300900 19003KT 1SM BR OVC007
     FM301100 20003KT 1/2SM FG VV002
     FM301500 26006KT 6SM BR VCSH BKN020 BKN040=

USA.gov is the U.S. government's official web portal to all federal, state and local government web resources and services.